Washington, GA

6:10 PM EDT on July 12, 2014 (GMT -0400)
Thomson-McDuffie County (KHQU) Elev 499 ft | 33.53 °N, 82.52 °W | Change Station

Current weather conditions updated 15 minutes ago

Clear
Clear
94 °F
Feels Like 100 °F
N
9
Wind Variable Wind from East

Tomorrow is forecast to be nearly the same temperature as today.

Today
High -- | Low -- °F
--% Chance of Precip.
Yesterday
High -- | Low -- °F
Precip. -- in
6:29 AM 8:43 PM
Full, 100% visible
Pressure 30.15 in
Visibility 10.0 miles
Clouds Clear
Heat Index 100 °F
Dew Point 69 °F
Humidity 44%
Rainfall 0.00 in
Snow Depth Not available.
UV 3 out of 12
Pollen 2.90 out of 12
Air Quality Not available.
Flu Activity Sporadic
METAR KHQU 122155Z AUTO 08008KT 10SM CLR 35/21 A3015 RMK AO1 T03460208

More Conditions Fewer Conditions

Pressure 30.15 in
Visibility 10.0 miles
Clouds Clear
Heat Index 100 °F
Dew Point 69 °F
Humidity 44%
Rainfall 0.00 in
Snow Depth Not available.
UV 3 out of 12
Pollen 2.90 out of 12
Air Quality Not available.
Flu Activity Sporadic
METAR KHQU 122155Z AUTO 08008KT 10SM CLR 35/21 A3015 RMK AO1 T03460208

More Conditions Fewer Conditions

10-Day Weather Forecast

Almanac

Astronomy

Jul. 12, 2014 Rise Set
Actual Time 6:29 AM EDT 8:43 PM EDT
Civil Twilight 6:01 AM EDT 9:11 PM EDT
Nautical Twilight 5:26 AM EDT 9:46 PM EDT
Astronomical Twilight 4:48 AM EDT 10:24 PM EDT
Moon 8:49 PM EDT 6:43 AM EDT
Length of Visible Light 15h 10m
Length of Day
14h 13m
Tomorrow will be 0m 57s shorter.
Full, 100% of the Moon is Illuminated
Today
Full
Jul 18
Last Quarter
Jul 26
New
Aug 3
First Quarter
Aug 10
Full

Today's Extremes

State Highs State Lows

Community

WunderPhotos

Upload Photos

1,732,983 photos uploaded!

Nearby

Snow Depth

Station Depth Elevation
No new snow has been reported.

Earthquake Activity

City Distance Mag. Time & Date
No recent earthquake activity has been reported nearby.
Minimum magnitude displayed is 2.5.

Coastal Water Temperatures

Place Temperature
No Stations Reporting

Nearby Weather Stations

Station Location Temp. Heat Index Dew Point Humidity Wind Precip. Elev Updated Type
RAWS WASHINGTON GA, Tignall, GA 91 °F 91 °F 60 °F 36% East  at  6 mph 0.00 in / hr 616 ft 5:02 PM EDT MADIS
Dancing Pines, Crawfordville, GA 92.5 °F 97 °F 69 °F 46% NW  at  2.0 mph 0.00 in / hr 581 ft 6:00 PM EDT Normal
Deerlick Astronomy Village (BE), Sharon, GA 94.1 °F 97 °F 65 °F 39% SSE  at  4.0 mph 0.00 in / hr 571 ft 6:08 PM EDT Rapid Fire
Deerlick Astronomy Village, Sharon, GA 95.0 °F 96 °F 62 °F 34% SSW  at  2.0 mph 0.00 in / hr 558 ft 6:10 PM EDT Normal
Lincoln County Board of Education, Lincolnton, GA 92.1 °F 97 °F 68 °F 46% East  at  0.0 mph 0.00 in / hr 443 ft 6:10 PM EDT Rapid Fire
APRSWXNET Lexington GA , Lexington, GA 87 °F 90 °F 67 °F 52% SE  at  0 mph 0.00 in / hr 728 ft 5:19 PM EDT MADIS

Show More Stations Show Fewer Stations